Time;durP1;ratioP1;P1;durP2;ratioP2;P2;SDS_P1;SDS_P2;PMS_P1;PMS_P2;Temp;Humidity;BMP_temperature;BMP_pressure;BME280_temperature;BME280_humidity;BME280_pressure;Samples;Min_cycle;Max_cycle;Signal;HPM_P1;HPM_P2
2023/01/03 00:00:11;;;;;;;5.50;4.90;;;;;;;9.11;84.78;100631.88;345082;28;908;-70
2023/01/03 00:00:23;;;;;;;5.35;4.35;;;;;;;9.15;84.97;100624.94;346664;28;1610;-70
2023/01/03 00:00:36;;;;;;;5.35;3.67;;;;;;;9.15;84.73;100632.72;347629;28;1134;-71
2023/01/03 00:00:48;;;;;;;4.72;3.30;;;;;;;9.17;84.94;100631.81;347468;28;1106;-71
2023/01/03 00:01:05;;;;;;;4.13;3.40;;;;;;;9.15;84.63;100636.16;347543;28;1179;-71
2023/01/03 00:01:18;;;;;;;6.25;5.43;;;;;;;9.10;85.08;100629.31;347021;28;1134;-71
2023/01/03 00:01:31;;;;;;;7.22;6.53;;;;;;;9.13;84.98;100634.47;345592;28;1635;-71
2023/01/03 00:01:43;;;;;;;6.50;5.90;;;;;;;9.14;85.10;100631.84;345885;28;1808;-70
2023/01/03 00:01:55;;;;;;;5.43;4.93;;;;;;;9.09;85.17;100625.84;344392;28;1194;-71
2023/01/03 00:02:07;;;;;;;5.65;4.55;;;;;;;9.07;85.01;100629.34;344949;28;1759;-70
2023/01/03 00:02:19;;;;;;;6.40;4.65;;;;;;;9.12;85.02;100628.41;346013;28;1429;-70
2023/01/03 00:02:31;;;;;;;7.45;5.35;;;;;;;9.12;85.05;100636.19;344677;28;1099;-70
2023/01/03 00:02:43;;;;;;;6.82;5.75;;;;;;;9.08;84.99;100631.91;344897;28;1078;-70
2023/01/03 00:02:56;;;;;;;7.53;6.68;;;;;;;9.08;85.10;100631.06;344695;28;1183;-71
2023/01/03 00:03:08;;;;;;;7.47;6.68;;;;;;;9.08;85.20;100631.91;344604;28;1748;-71
2023/01/03 00:03:20;;;;;;;7.35;6.57;;;;;;;9.06;85.02;100628.50;344755;28;1519;-71
2023/01/03 00:03:32;;;;;;;6.88;6.05;;;;;;;9.04;85.15;100635.44;345159;28;986;-70
2023/01/03 00:03:44;;;;;;;7.55;6.20;;;;;;;9.08;85.28;100631.91;344375;28;1089;-71
2023/01/03 00:03:57;;;;;;;8.40;6.35;;;;;;;8.98;85.35;100625.13;343642;28;1230;-71
2023/01/03 00:04:10;;;;;;;8.45;7.15;;;;;;;8.93;85.69;100634.66;343429;28;1206;-71
2023/01/03 00:04:22;;;;;;;8.68;7.55;;;;;;;8.94;85.76;100633.81;342491;28;1608;-71
2023/01/03 00:04:34;;;;;;;8.90;7.90;;;;;;;8.95;85.55;100632.91;343952;28;1422;-71
2023/01/03 00:04:46;;;;;;;10.40;9.30;;;;;;;8.96;85.59;100632.06;344873;28;1159;-71
2023/01/03 00:05:01;;;;;;;12.93;10.60;;;;;;;8.96;86.02;100635.50;344693;28;1160;-71
2023/01/03 00:05:13;;;;;;;13.15;10.07;;;;;;;8.95;85.73;100636.38;344190;28;1863;-70
2023/01/03 00:05:25;;;;;;;10.60;7.90;;;;;;;8.92;85.81;100630.38;344486;28;1541;-70
2023/01/03 00:05:37;;;;;;;9.90;6.88;;;;;;;8.97;85.73;100641.53;343952;28;1631;-70
2023/01/03 00:05:49;;;;;;;11.38;9.13;;;;;;;8.95;85.62;100635.50;343468;28;1753;-70
2023/01/03 00:06:01;;;;;;;15.43;13.50;;;;;;;8.93;85.91;100637.25;343402;28;1081;-71
2023/01/03 00:06:16;;;;;;;16.02;14.38;;;;;;;8.90;85.95;100637.31;343255;28;1231;-71
2023/01/03 00:06:31;;;;;;;14.13;12.68;;;;;;;8.91;85.88;100634.66;344514;28;1233;-70
2023/01/03 00:06:47;;;;;;;10.35;9.07;;;;;;;8.88;86.05;100639.06;344580;28;1030;-71
2023/01/03 00:06:59;;;;;;;7.75;6.13;;;;;;;8.91;86.03;100639.00;343419;28;1027;-70
2023/01/03 00:07:11;;;;;;;10.90;7.88;;;;;;;8.89;86.12;100638.16;342952;28;1980;-69
2023/01/03 00:07:38;;;;;;;13.52;10.10;;;;;;;8.90;86.25;100642.50;343714;28;1311;-69
2023/01/03 00:07:49;;;;;;;10.35;8.75;;;;;;;8.95;86.00;100643.28;343073;28;1156;-71
2023/01/03 00:08:01;;;;;;;10.38;8.45;;;;;;;8.96;86.10;100642.44;344808;28;1227;-70
2023/01/03 00:08:14;;;;;;;11.50;8.20;;;;;;;8.97;85.80;100638.94;344091;28;1889;-70
2023/01/03 00:08:27;;;;;;;11.18;7.47;;;;;;;9.00;85.96;100646.72;344280;28;1682;-70
2023/01/03 00:08:39;;;;;;;8.35;5.75;;;;;;;9.00;85.62;100644.13;345017;28;1230;-71
2023/01/03 00:08:53;;;;;;;6.65;5.07;;;;;;;9.04;85.42;100645.81;345052;28;1098;-71
2023/01/03 00:09:10;;;;;;;6.00;4.38;;;;;;;9.07;85.35;100647.50;345979;28;1043;-71
2023/01/03 00:09:23;;;;;;;8.05;7.18;;;;;;;9.12;85.18;100643.97;345579;28;2515;-70
2023/01/03 00:09:35;;;;;;;10.27;9.18;;;;;;;9.12;85.23;100646.56;346033;28;1024;-71
2023/01/03 00:09:47;;;;;;;9.00;8.05;;;;;;;8.95;85.48;100645.88;345958;28;1144;-71
2023/01/03 00:10:03;;;;;;;9.40;8.00;;;;;;;8.95;85.59;100645.88;345782;28;978;-69
2023/01/03 00:10:15;;;;;;;12.15;10.88;;;;;;;8.85;85.82;100649.44;346153;28;1040;-70
2023/01/03 00:10:30;;;;;;;12.95;11.48;;;;;;;8.89;85.93;100646.78;345962;28;1012;-71
2023/01/03 00:10:42;;;;;;;12.18;10.75;;;;;;;8.93;85.84;100642.44;344856;28;1269;-71
2023/01/03 00:10:54;;;;;;;11.27;9.90;;;;;;;8.91;85.72;100639.00;344925;28;1051;-71
2023/01/03 00:11:13;;;;;;;9.70;8.43;;;;;;;8.95;85.43;100645.88;343346;28;1617;-70
2023/01/03 00:12:24;;;;;;;16.25;14.57;;;;;;;8.97;85.77;100644.13;342204;28;1242;-70
2023/01/03 00:12:42;;;;;;;8.65;6.60;;;;;;;8.98;85.29;100635.50;342009;28;1670;-68
2023/01/03 00:12:56;;;;;;;8.23;6.07;;;;;;;8.99;85.31;100642.38;343333;28;1844;-71
2023/01/03 00:13:08;;;;;;;11.68;10.18;;;;;;;8.99;85.48;100639.78;346146;28;1671;-71
2023/01/03 00:13:20;;;;;;;16.05;14.38;;;;;;;8.88;85.54;100642.50;346144;28;1275;-71
2023/01/03 00:13:32;;;;;;;19.77;17.77;;;;;;;8.94;85.65;100633.81;346380;28;1295;-71
2023/01/03 00:13:44;;;;;;;18.33;16.42;;;;;;;8.96;85.60;100637.25;345110;28;1891;-71
2023/01/03 00:13:56;;;;;;;14.15;12.65;;;;;;;8.95;85.50;100643.28;346385;28;1054;-71
2023/01/03 00:14:10;;;;;;;9.60;8.13;;;;;;;8.96;85.42;100645.88;345885;28;1532;-71
2023/01/03 00:14:27;;;;;;;6.63;5.05;;;;;;;9.02;85.24;100641.50;345867;28;1292;-71
2023/01/03 00:14:41;;;;;;;8.52;7.13;;;;;;;9.02;85.19;100642.38;345491;28;2000;-68
2023/01/03 00:14:53;;;;;;;10.18;9.00;;;;;;;9.03;85.14;100646.66;345188;28;1500;-70
2023/01/03 00:15:06;;;;;;;7.55;5.68;;;;;;;9.03;85.08;100646.66;346147;28;1055;-69
2023/01/03 00:15:18;;;;;;;5.03;3.47;;;;;;;9.01;84.92;100643.22;346145;28;1244;-72
2023/01/03 00:15:34;;;;;;;4.25;2.45;;;;;;;9.01;85.30;100645.81;346262;28;1210;-71
2023/01/03 00:15:46;;;;;;;4.10;2.60;;;;;;;9.06;85.03;100646.66;345527;28;1796;-71
2023/01/03 00:15:58;;;;;;;2.88;2.45;;;;;;;9.01;85.04;100651.00;346986;28;1928;-71
2023/01/03 00:16:18;;;;;;;2.70;2.10;;;;;;;9.01;85.30;100643.22;347319;28;1007;-70
2023/01/03 00:16:30;;;;;;;2.80;2.30;;;;;;;9.06;85.18;100646.66;344859;28;1758;-71
2023/01/03 00:16:42;;;;;;;2.85;2.40;;;;;;;9.08;84.97;100646.63;346003;28;1224;-70
2023/01/03 00:16:58;;;;;;;3.75;3.20;;;;;;;9.10;84.80;100640.53;346188;28;1335;-71
2023/01/03 00:17:11;;;;;;;4.68;3.63;;;;;;;9.06;84.73;100644.06;344642;28;1311;-71
2023/01/03 00:17:24;;;;;;;3.60;2.70;;;;;;;9.03;84.90;100648.41;344641;28;1329;-70
2023/01/03 00:17:36;;;;;;;2.60;2.25;;;;;;;9.00;85.04;100644.13;344823;28;1240;-71
2023/01/03 00:17:50;;;;;;;2.78;2.28;;;;;;;9.01;84.93;100640.63;344404;28;1512;-71
2023/01/03 00:18:03;;;;;;;3.25;2.47;;;;;;;9.03;84.84;100644.06;344494;28;1299;-71
2023/01/03 00:18:15;;;;;;;3.42;2.47;;;;;;;9.08;84.72;100642.31;344641;28;1166;-71
2023/01/03 00:18:29;;;;;;;4.22;3.00;;;;;;;9.09;84.85;100644.00;344137;28;1590;-70
2023/01/03 00:18:41;;;;;;;4.35;3.10;;;;;;;9.10;84.61;100639.69;342313;28;1059;-70
2023/01/03 00:18:53;;;;;;;3.30;2.53;;;;;;;9.04;84.65;100651.00;342345;28;1272;-71
2023/01/03 00:19:13;;;;;;;2.40;2.20;;;;;;;9.04;84.99;100640.63;342658;28;1942;-72
2023/01/03 00:19:28;;;;;;;3.97;2.90;;;;;;;9.03;84.85;100653.59;343369;28;1291;-72
2023/01/03 00:19:42;;;;;;;4.70;3.30;;;;;;;9.06;84.81;100650.97;343244;28;1154;-71
2023/01/03 00:19:54;;;;;;;4.00;2.88;;;;;;;9.09;84.65;100649.19;343617;28;1282;-71
2023/01/03 00:20:08;;;;;;;3.72;2.65;;;;;;;9.04;84.82;100651.00;344836;28;1146;-71
2023/01/03 00:20:21;;;;;;;4.07;2.40;;;;;;;9.01;85.00;100656.19;343838;28;1511;-67
2023/01/03 00:20:33;;;;;;;3.90;2.30;;;;;;;9.00;84.92;100654.50;344710;28;1576;-71
2023/01/03 00:20:45;;;;;;;3.15;2.40;;;;;;;8.97;84.87;100654.50;345655;28;1197;-72
2023/01/03 00:21:03;;;;;;;4.88;4.03;;;;;;;8.92;85.30;100656.31;344513;28;1702;-71
2023/01/03 00:21:14;;;;;;;4.93;4.10;;;;;;;8.95;85.14;100656.25;345757;28;1237;-71
2023/01/03 00:21:26;;;;;;;3.10;2.60;;;;;;;8.94;85.22;100649.38;343290;28;1279;-71
2023/01/03 00:21:40;;;;;;;3.20;2.38;;;;;;;8.94;85.32;100650.22;343514;28;1076;-71
2023/01/03 00:21:52;;;;;;;3.00;2.20;;;;;;;8.97;85.16;100657.09;343451;28;1152;-68
2023/01/03 00:22:05;;;;;;;2.97;2.47;;;;;;;8.92;85.39;100657.16;343658;28;1103;-72
2023/01/03 00:22:17;;;;;;;3.47;3.15;;;;;;;8.97;85.09;100652.78;344616;28;1456;-71
2023/01/03 00:22:32;;;;;;;3.58;3.22;;;;;;;9.02;84.98;100657.94;344083;28;1013;-71
2023/01/03 00:22:44;;;;;;;3.70;3.30;;;;;;;9.00;85.00;100660.53;343594;28;1166;-70
2023/01/03 00:22:58;;;;;;;3.50;3.20;;;;;;;8.95;85.00;100661.44;343440;28;1071;-69
2023/01/03 00:23:10;;;;;;;3.47;2.67;;;;;;;8.96;84.86;100661.44;344568;28;1669;-71
2023/01/03 00:23:22;;;;;;;3.13;2.28;;;;;;;8.96;85.23;100663.19;343859;28;1391;-71
2023/01/03 00:23:34;;;;;;;3.13;2.10;;;;;;;8.98;85.17;100656.25;343478;28;1084;-71
2023/01/03 00:23:46;;;;;;;3.45;3.13;;;;;;;8.98;85.16;100657.09;343183;28;1073;-71
2023/01/03 00:23:58;;;;;;;3.67;3.28;;;;;;;9.00;84.96;100662.28;344224;28;1287;-71
2023/01/03 00:24:11;;;;;;;3.33;2.88;;;;;;;8.96;84.92;100656.25;344684;28;1115;-71
2023/01/03 00:24:23;;;;;;;3.47;2.67;;;;;;;9.00;84.97;100659.69;343975;28;1962;-71
2023/01/03 00:24:35;;;;;;;4.32;3.40;;;;;;;9.00;85.05;100657.09;344577;28;1249;-71
2023/01/03 00:24:48;;;;;;;4.28;3.42;;;;;;;8.94;85.00;100658.00;343669;28;1584;-71
2023/01/03 00:25:00;;;;;;;3.33;2.58;;;;;;;8.94;84.94;100655.41;344482;28;941;-71
2023/01/03 00:25:12;;;;;;;2.63;2.08;;;;;;;8.98;84.96;100658.84;344969;28;1149;-71
2023/01/03 00:25:25;;;;;;;2.80;2.17;;;;;;;8.89;84.99;100661.50;345652;28;1703;-71
2023/01/03 00:25:37;;;;;;;2.63;2.17;;;;;;;8.92;85.17;100658.91;346056;28;1500;-71
2023/01/03 00:25:49;;;;;;;4.00;3.60;;;;;;;8.94;85.13;100658.00;346171;28;1290;-71
2023/01/03 00:26:13;;;;;;;4.50;3.95;;;;;;;8.89;85.24;100653.72;346194;28;1235;-71
2023/01/03 00:26:25;;;;;;;4.68;3.55;;;;;;;8.87;85.57;100656.31;345600;28;1716;-68
2023/01/03 00:26:37;;;;;;;6.38;4.70;;;;;;;8.92;85.44;100656.31;345985;28;1796;-71
2023/01/03 00:26:49;;;;;;;6.80;4.70;;;;;;;8.91;85.27;100662.34;346020;28;1270;-72
2023/01/03 00:27:02;;;;;;;5.65;3.83;;;;;;;8.98;85.31;100654.50;344393;28;1063;-68
2023/01/03 00:27:15;;;;;;;5.07;4.20;;;;;;;8.99;85.27;100655.34;345948;28;1757;-72
2023/01/03 00:27:27;;;;;;;6.25;4.50;;;;;;;8.96;84.58;100650.22;344645;28;1187;-70
2023/01/03 00:27:39;;;;;;;6.32;4.57;;;;;;;9.00;85.32;100657.09;344732;28;1342;-70
2023/01/03 00:27:51;;;;;;;6.15;4.68;;;;;;;9.02;84.99;100652.75;345373;28;1778;-70
2023/01/03 00:28:03;;;;;;;5.90;5.20;;;;;;;9.00;85.06;100649.31;347447;28;1742;-70
2023/01/03 00:28:15;;;;;;;5.13;4.60;;;;;;;9.00;85.05;100650.16;346068;28;948;-70
2023/01/03 00:28:27;;;;;;;3.45;3.13;;;;;;;9.05;85.06;100657.88;345165;28;2216;-70
2023/01/03 00:28:39;;;;;;;3.20;2.90;;;;;;;9.03;84.84;100654.44;346088;28;1063;-70
2023/01/03 00:28:51;;;;;;;2.90;2.60;;;;;;;9.01;84.78;100651.00;346047;28;1186;-69
2023/01/03 00:29:03;;;;;;;3.03;2.58;;;;;;;8.99;84.77;100653.63;346036;28;1182;-70
2023/01/03 00:29:15;;;;;;;2.90;2.30;;;;;;;9.02;84.80;100651.88;346280;28;1063;-70
2023/01/03 00:29:28;;;;;;;2.97;2.17;;;;;;;8.99;84.88;100652.75;344707;28;1011;-70
2023/01/03 00:29:41;;;;;;;2.65;2.03;;;;;;;9.03;84.88;100661.38;345113;28;1082;-71
2023/01/03 00:29:53;;;;;;;2.58;2.10;;;;;;;9.03;85.09;100651.84;344826;28;1107;-70
2023/01/03 00:30:05;;;;;;;2.70;2.35;;;;;;;8.96;84.84;100652.81;345079;28;1113;-70
2023/01/03 00:30:18;;;;;;;4.15;3.70;;;;;;;9.00;85.07;100654.50;345061;28;1301;-71
2023/01/03 00:30:30;;;;;;;5.40;4.63;;;;;;;8.97;84.89;100654.50;345810;28;1419;-71
2023/01/03 00:30:42;;;;;;;5.75;5.15;;;;;;;9.00;84.98;100650.16;346301;28;1164;-72
2023/01/03 00:30:54;;;;;;;4.50;4.10;;;;;;;8.96;84.88;100652.81;346356;28;1002;-72
2023/01/03 00:31:08;;;;;;;3.67;3.00;;;;;;;8.96;84.93;100647.63;346006;28;1039;-72
2023/01/03 00:31:20;;;;;;;3.92;3.22;;;;;;;9.00;84.90;100652.75;344598;28;1740;-70
2023/01/03 00:31:33;;;;;;;5.05;4.53;;;;;;;8.94;84.93;100654.56;344678;28;1039;-69
2023/01/03 00:31:45;;;;;;;5.72;5.22;;;;;;;8.96;84.99;100658.00;344847;28;1089;-70
2023/01/03 00:31:57;;;;;;;5.30;4.80;;;;;;;8.96;85.01;100648.47;344393;28;1618;-70
2023/01/03 00:32:09;;;;;;;5.53;5.03;;;;;;;9.01;85.05;100645.81;344791;28;1426;-69
2023/01/03 00:32:24;;;;;;;5.70;4.80;;;;;;;8.97;84.87;100644.13;343559;28;1627;-70
2023/01/03 00:32:36;;;;;;;4.78;3.22;;;;;;;9.01;84.72;100651.00;343602;28;1245;-70
2023/01/03 00:32:48;;;;;;;4.93;4.07;;;;;;;9.01;84.78;100651.00;343175;28;1290;-70
2023/01/03 00:33:00;;;;;;;7.25;6.55;;;;;;;9.00;84.95;100654.50;343515;28;1057;-70
2023/01/03 00:33:12;;;;;;;8.32;7.53;;;;;;;8.93;84.76;100647.63;343478;28;1134;-70
2023/01/03 00:33:24;;;;;;;5.45;4.93;;;;;;;8.95;84.92;100653.66;343387;28;1535;-70
2023/01/03 00:33:38;;;;;;;4.57;4.10;;;;;;;8.99;85.06;100655.34;343444;28;1148;-70
2023/01/03 00:33:50;;;;;;;3.45;3.08;;;;;;;9.02;84.79;100652.75;343190;28;1253;-72
2023/01/03 00:34:03;;;;;;;2.72;2.30;;;;;;;9.03;84.55;100649.25;343416;28;1071;-70
2023/01/03 00:34:15;;;;;;;2.83;2.30;;;;;;;8.99;84.87;100655.34;343272;28;1058;-70
2023/01/03 00:34:27;;;;;;;3.10;2.55;;;;;;;9.02;84.81;100647.56;344243;28;1630;-70
2023/01/03 00:34:42;;;;;;;3.78;3.28;;;;;;;9.02;84.55;100652.75;345987;28;1170;-70
2023/01/03 00:34:54;;;;;;;4.40;3.85;;;;;;;9.03;84.69;100649.25;344578;28;1138;-70
2023/01/03 00:35:13;;;;;;;4.60;4.05;;;;;;;9.05;84.77;100652.69;344875;28;1300;-70
2023/01/03 00:35:25;;;;;;;6.88;5.53;;;;;;;9.05;84.41;100652.69;345909;28;1387;-70
2023/01/03 00:35:40;;;;;;;7.13;5.30;;;;;;;9.04;84.26;100648.41;345798;28;1865;-70
2023/01/03 00:35:52;;;;;;;6.22;4.95;;;;;;;9.07;84.32;100650.94;345949;28;1935;-70
2023/01/03 00:36:06;;;;;;;6.50;5.63;;;;;;;9.05;84.42;100652.69;347839;28;1057;-71
2023/01/03 00:36:19;;;;;;;6.25;4.80;;;;;;;9.01;84.37;100653.59;347320;28;1448;-72
2023/01/03 00:36:31;;;;;;;4.32;2.33;;;;;;;8.99;84.38;100655.34;345741;28;1580;-70
2023/01/03 00:36:43;;;;;;;4.07;2.50;;;;;;;8.96;84.65;100651.06;345478;28;1690;-70
2023/01/03 00:36:58;;;;;;;3.10;2.78;;;;;;;8.99;84.66;100657.94;345799;28;1170;-72
2023/01/03 00:37:11;;;;;;;3.03;2.67;;;;;;;8.94;84.41;100650.22;345909;28;1127;-71
2023/01/03 00:37:23;;;;;;;2.65;2.30;;;;;;;8.89;84.69;100657.16;345705;28;1278;-70
2023/01/03 00:37:35;;;;;;;2.72;2.40;;;;;;;8.96;84.93;100658.84;346065;28;1343;-70
2023/01/03 00:37:47;;;;;;;3.28;2.30;;;;;;;8.95;84.63;100661.44;345965;28;2154;-71
2023/01/03 00:37:59;;;;;;;3.40;2.13;;;;;;;8.96;84.74;100658.00;346025;28;1212;-70
2023/01/03 00:38:11;;;;;;;3.67;2.10;;;;;;;8.88;85.07;100658.06;345308;28;1562;-70
2023/01/03 00:38:23;;;;;;;3.50;2.20;;;;;;;8.90;84.96;100658.91;345356;28;1404;-70
2023/01/03 00:38:36;;;;;;;3.65;2.30;;;;;;;8.88;84.87;100657.22;346060;28;1684;-70
2023/01/03 00:38:48;;;;;;;3.70;2.30;;;;;;;8.86;85.03;100652.03;346014;28;1370;-69
2023/01/03 00:39:00;;;;;;;3.13;2.20;;;;;;;8.87;85.12;100653.72;346283;28;1029;-70
2023/01/03 00:39:12;;;;;;;4.15;3.60;;;;;;;8.88;84.88;100654.63;346385;28;1330;-71
2023/01/03 00:39:24;;;;;;;5.75;5.15;;;;;;;8.87;85.09;100653.72;346024;28;1186;-70
2023/01/03 00:39:37;;;;;;;5.78;5.22;;;;;;;8.88;85.14;100659.78;345964;28;1071;-70
2023/01/03 00:39:49;;;;;;;4.25;3.53;;;;;;;8.87;85.17;100658.91;346078;28;1336;-70
2023/01/03 00:40:01;;;;;;;4.13;3.38;;;;;;;8.86;85.25;100661.53;345972;28;1126;-70
2023/01/03 00:40:13;;;;;;;2.88;2.33;;;;;;;8.86;85.26;100656.38;346077;28;1110;-70
2023/01/03 00:40:25;;;;;;;2.65;2.22;;;;;;;8.86;85.40;100661.53;345549;28;1350;-70
2023/01/03 00:40:37;;;;;;;2.58;2.30;;;;;;;8.85;85.30;100659.81;345490;28;1569;-72
2023/01/03 00:40:49;;;;;;;2.90;2.40;;;;;;;8.87;85.25;100660.66;344529;28;1227;-69
2023/01/03 00:41:04;;;;;;;3.03;2.40;;;;;;;8.85;84.94;100654.63;344732;28;1958;-70
2023/01/03 00:41:18;;;;;;;3.42;2.70;;;;;;;8.87;85.44;100663.25;344292;28;1582;-72
2023/01/03 00:41:30;;;;;;;3.15;2.42;;;;;;;8.86;85.20;100658.94;344476;28;1281;-71
2023/01/03 00:41:42;;;;;;;2.75;2.15;;;;;;;8.86;85.06;100659.81;344664;28;1227;-71
2023/01/03 00:41:54;;;;;;;3.80;3.20;;;;;;;8.83;85.34;100657.22;345744;28;1712;-71
2023/01/03 00:42:06;;;;;;;5.68;5.07;;;;;;;8.87;85.39;100658.06;345281;28;1686;-70
2023/01/03 00:42:18;;;;;;;6.03;5.43;;;;;;;8.92;85.22;100658.91;345714;28;1192;-70
2023/01/03 00:43:27;;;;;;;3.47;3.08;;;;;;;8.90;85.31;100663.25;345874;28;1034;-71
2023/01/03 00:43:34;;;;;;;5.05;3.60;;;;;;;8.90;85.03;100668.41;345983;28;1253;-71
2023/01/03 00:43:47;;;;;;;3.83;2.97;;;;;;;8.86;84.94;100661.53;344454;28;1111;-70
2023/01/03 00:44:00;;;;;;;2.58;2.15;;;;;;;8.88;85.24;100665.84;344795;28;1241;-70
2023/01/03 00:44:12;;;;;;;2.65;2.08;;;;;;;8.90;85.03;100663.25;344937;28;1862;-70
2023/01/03 00:44:24;;;;;;;2.53;2.00;;;;;;;8.83;85.29;100666.75;346560;28;1520;-70
2023/01/03 00:44:36;;;;;;;2.97;1.92;;;;;;;8.83;85.47;100666.75;346523;28;1064;-71
2023/01/03 00:44:48;;;;;;;2.85;2.00;;;;;;;8.83;85.34;100661.56;345959;28;1105;-70
2023/01/03 00:45:00;;;;;;;2.27;1.93;;;;;;;8.85;85.46;100665.00;345313;28;1506;-71
2023/01/03 00:45:12;;;;;;;2.35;2.10;;;;;;;8.89;85.56;100661.50;345765;28;1178;-71
2023/01/03 00:45:30;;;;;;;5.00;3.92;;;;;;;8.88;85.14;100668.44;346230;28;838;-71
2023/01/03 00:45:46;;;;;;;5.37;4.70;;;;;;;8.91;85.23;100665.78;345891;28;1035;-72
2023/01/03 00:45:59;;;;;;;4.25;3.72;;;;;;;8.93;85.09;100663.19;345722;28;1039;-71
2023/01/03 00:46:12;;;;;;;5.03;4.50;;;;;;;8.86;85.20;100669.31;345847;28;1075;-70
2023/01/03 00:46:25;;;;;;;7.95;7.15;;;;;;;8.83;85.40;100666.75;345214;28;2034;-71
2023/01/03 00:46:37;;;;;;;7.72;6.93;;;;;;;8.86;85.19;100672.75;344718;28;1177;-70
2023/01/03 00:46:49;;;;;;;4.38;3.45;;;;;;;8.83;85.34;100662.41;344817;28;1270;-70
2023/01/03 00:47:01;;;;;;;4.35;2.78;;;;;;;8.86;85.20;100666.72;344175;28;1678;-70
2023/01/03 00:47:13;;;;;;;4.07;2.40;;;;;;;8.91;85.09;100664.94;344608;28;1083;-70
2023/01/03 00:47:25;;;;;;;3.63;2.33;;;;;;;8.94;85.11;100668.38;344260;28;1298;-70
2023/01/03 00:47:37;;;;;;;3.80;2.58;;;;;;;8.85;85.00;100665.00;344032;28;2151;-70
2023/01/03 00:47:49;;;;;;;4.45;3.05;;;;;;;8.82;85.40;100663.31;344368;28;1178;-72
2023/01/03 00:48:01;;;;;;;6.35;4.78;;;;;;;8.89;85.21;100671.88;344607;28;1023;-69
2023/01/03 00:48:13;;;;;;;7.85;7.05;;;;;;;8.87;85.17;100668.44;344808;28;1218;-70
2023/01/03 00:48:26;;;;;;;7.38;6.30;;;;;;;8.83;85.20;100671.94;344433;28;1339;-69
2023/01/03 00:48:39;;;;;;;4.80;3.40;;;;;;;8.85;85.04;100671.03;344174;28;1768;-71
2023/01/03 00:48:51;;;;;;;3.55;2.25;;;;;;;8.92;85.11;100677.03;343486;28;1091;-70
2023/01/03 00:49:04;;;;;;;5.35;4.30;;;;;;;8.93;84.99;100674.44;345035;28;1098;-70
2023/01/03 00:49:16;;;;;;;7.35;6.32;;;;;;;8.91;85.03;100668.38;343057;28;1280;-72
2023/01/03 00:49:28;;;;;;;7.10;6.30;;;;;;;8.95;84.75;100671.81;344761;28;1341;-70
2023/01/03 00:49:40;;;;;;;4.25;3.38;;;;;;;8.83;84.85;100671.94;343825;28;1832;-70
2023/01/03 00:49:52;;;;;;;4.15;3.00;;;;;;;8.86;85.32;100669.31;344690;28;1435;-70
2023/01/03 00:50:04;;;;;;;5.63;3.25;;;;;;;8.88;85.04;100668.44;345885;28;1051;-70
2023/01/03 00:50:16;;;;;;;5.22;2.92;;;;;;;8.89;84.91;100666.69;343886;28;3102;-73
2023/01/03 00:50:28;;;;;;;4.85;3.05;;;;;;;8.85;84.90;100670.19;344052;28;3228;-71
2023/01/03 00:50:43;;;;;;;5.07;3.40;;;;;;;8.83;85.16;100671.94;344133;28;1906;-70
2023/01/03 00:50:55;;;;;;;4.90;3.15;;;;;;;8.90;85.02;100671.00;343489;28;2465;-73
2023/01/03 00:51:07;;;;;;;4.32;2.85;;;;;;;8.90;85.20;100668.41;344728;28;1936;-71
2023/01/03 00:51:22;;;;;;;4.43;2.95;;;;;;;8.93;85.08;100668.38;346269;28;1347;-72
2023/01/03 00:51:37;;;;;;;4.47;2.53;;;;;;;8.92;84.75;100671.84;346129;28;1046;-70
2023/01/03 00:51:49;;;;;;;4.13;2.33;;;;;;;8.91;84.71;100670.97;346068;28;1212;-70
2023/01/03 00:52:01;;;;;;;4.40;2.75;;;;;;;8.91;84.90;100670.13;345856;28;1682;-70
2023/01/03 00:52:13;;;;;;;5.50;3.92;;;;;;;8.92;84.58;100677.03;346254;28;1611;-70
2023/01/03 00:52:25;;;;;;;5.43;3.80;;;;;;;8.94;84.97;100670.09;346108;28;2160;-70
2023/01/03 00:52:37;;;;;;;5.78;2.90;;;;;;;8.91;84.86;100675.31;346095;28;1688;-70
2023/01/03 00:52:49;;;;;;;5.40;2.40;;;;;;;8.91;84.68;100667.53;345304;28;1879;-70
2023/01/03 00:53:01;;;;;;;4.88;2.30;;;;;;;8.88;84.70;100671.03;344996;28;1492;-70
2023/01/03 00:53:13;;;;;;;3.17;2.30;;;;;;;8.86;84.86;100672.75;345537;28;1580;-70
2023/01/03 00:53:25;;;;;;;3.00;2.20;;;;;;;8.86;84.77;100671.91;346012;28;1610;-70
2023/01/03 00:53:38;;;;;;;2.92;2.00;;;;;;;8.88;84.93;100675.34;345941;28;1629;-71
2023/01/03 00:53:54;;;;;;;4.28;3.22;;;;;;;8.88;84.79;100675.34;343414;28;1796;-71
2023/01/03 00:54:07;;;;;;;5.07;3.90;;;;;;;8.88;84.84;100672.75;343261;28;1048;-70
2023/01/03 00:54:20;;;;;;;3.60;2.97;;;;;;;8.89;84.84;100671.88;344225;28;1327;-70
2023/01/03 00:54:32;;;;;;;3.08;2.53;;;;;;;8.91;84.83;100675.31;346158;28;1066;-70
2023/01/03 00:54:44;;;;;;;3.10;2.63;;;;;;;8.85;84.76;100677.97;345912;28;1076;-70
2023/01/03 00:54:56;;;;;;;3.20;2.55;;;;;;;8.87;84.74;100674.47;344823;28;1686;-71
2023/01/03 00:55:09;;;;;;;3.78;2.97;;;;;;;8.88;84.77;100680.53;344792;28;1779;-70
2023/01/03 00:55:21;;;;;;;3.95;3.00;;;;;;;8.86;84.82;100677.09;345095;28;1257;-70
2023/01/03 00:55:33;;;;;;;3.45;2.70;;;;;;;8.84;84.98;100673.66;345745;28;1219;-71
2023/01/03 00:55:46;;;;;;;3.00;2.47;;;;;;;8.83;85.30;100677.13;346119;28;1126;-70
2023/01/03 00:56:11;;;;;;;2.70;2.20;;;;;;;8.85;85.10;100677.97;345836;28;1815;-72
2023/01/03 00:56:25;;;;;;;3.35;2.50;;;;;;;8.76;85.18;100677.16;345920;28;2539;-70
2023/01/03 00:56:40;;;;;;;2.97;2.35;;;;;;;8.71;85.26;100678.06;346286;28;891;-70
2023/01/03 00:56:52;;;;;;;3.50;2.75;;;;;;;8.73;85.41;100682.41;346102;28;1222;-70
2023/01/03 00:57:04;;;;;;;4.00;3.20;;;;;;;8.69;85.51;100680.72;345653;28;1763;-71
2023/01/03 00:57:16;;;;;;;3.40;3.05;;;;;;;8.65;85.63;100673.81;344791;28;1240;-71
2023/01/03 00:57:28;;;;;;;4.43;3.83;;;;;;;8.72;85.70;100670.28;346048;28;1070;-70
2023/01/03 00:57:40;;;;;;;4.72;3.90;;;;;;;8.76;85.18;100671.13;345912;28;1401;-70
2023/01/03 00:57:52;;;;;;;4.68;3.22;;;;;;;8.78;85.30;100680.59;345161;28;1776;-70
2023/01/03 00:58:04;;;;;;;4.40;2.53;;;;;;;8.83;85.47;100682.31;347067;28;1864;-70
2023/01/03 00:58:16;;;;;;;4.45;2.88;;;;;;;8.84;85.34;100679.69;346665;28;1212;-71
2023/01/03 00:58:31;;;;;;;3.88;3.35;;;;;;;8.90;84.97;100674.47;345961;28;1226;-71
2023/01/03 00:58:43;;;;;;;3.53;2.95;;;;;;;8.85;85.03;100670.19;346082;28;1075;-71
2023/01/03 00:59:00;;;;;;;3.10;2.80;;;;;;;8.83;84.94;100672.78;345496;28;1793;-71
2023/01/03 00:59:13;;;;;;;3.80;3.30;;;;;;;8.77;84.95;100673.72;344692;28;1888;-71
2023/01/03 00:59:25;;;;;;;4.13;3.40;;;;;;;8.78;85.53;100674.56;344675;28;1313;-71
2023/01/03 00:59:37;;;;;;;4.57;3.50;;;;;;;8.78;85.32;100675.44;345192;28;1091;-70
2023/01/03 00:59:49;;;;;;;4.32;3.42;;;;;;;8.83;85.30;100671.94;344798;28;1080;-70
2023/01/03 01:00:02;;;;;;;4.18;3.42;;;;;;;8.77;85.34;100671.13;344671;28;1051;-70
2023/01/03 01:00:14;;;;;;;4.25;3.85;;;;;;;8.83;85.31;100664.16;346137;28;1234;-70
2023/01/03 01:00:26;;;;;;;4.90;4.40;;;;;;;8.85;85.27;100670.19;345475;28;1803;-70
2023/01/03 01:00:39;;;;;;;4.10;3.70;;;;;;;8.91;85.02;100667.53;343452;28;1561;-71
2023/01/03 01:00:50;;;;;;;3.55;2.95;;;;;;;8.97;84.92;100676.13;343651;28;1235;-71
2023/01/03 01:01:05;;;;;;;3.10;2.40;;;;;;;9.02;84.64;100667.44;344639;28;1153;-70
2023/01/03 01:01:23;;;;;;;3.10;2.22;;;;;;;9.01;84.43;100666.56;344780;28;1296;-70
2023/01/03 01:01:44;;;;;;;3.00;2.55;;;;;;;8.99;84.50;100670.91;345002;28;1251;-70
2023/01/03 01:01:58;;;;;;;3.58;3.13;;;;;;;8.97;84.14;100667.47;343299;28;1035;-71
2023/01/03 01:02:10;;;;;;;3.75;3.20;;;;;;;8.95;84.13;100669.22;342065;28;1080;-70
2023/01/03 01:02:23;;;;;;;3.28;2.83;;;;;;;8.94;84.15;100659.75;342645;28;2116;-70
2023/01/03 01:02:35;;;;;;;4.35;3.25;;;;;;;8.94;84.36;100665.78;343842;28;1814;-71
2023/01/03 01:02:52;;;;;;;4.60;2.90;;;;;;;8.95;84.23;100664.03;345810;28;2035;-70
2023/01/03 01:03:07;;;;;;;3.13;2.50;;;;;;;8.90;84.28;100668.41;344899;28;1859;-71
2023/01/03 01:03:19;;;;;;;2.67;2.47;;;;;;;8.89;84.42;100666.69;343311;28;1319;-70
2023/01/03 01:03:33;;;;;;;2.88;2.60;;;;;;;8.86;84.88;100661.53;341874;28;1821;-71
2023/01/03 01:03:48;;;;;;;3.67;3.38;;;;;;;8.89;84.55;100656.31;343474;28;1066;-70
2023/01/03 01:04:16;;;;;;;3.97;3.58;;;;;;;8.89;84.38;100661.50;343186;28;1087;-70
2023/01/03 01:04:30;;;;;;;3.28;2.85;;;;;;;8.89;84.15;100662.34;343348;28;1194;-70
2023/01/03 01:04:42;;;;;;;3.30;2.90;;;;;;;8.94;84.47;100664.94;343618;28;1876;-70